sensor_id;sensor_type;location;lat;lon;timestamp;P1;durP1;ratioP1;P2;durP2;ratioP2
53646;SDS011;39550;52.230;5.194;2023-02-03T00:01:30;8.80;;;4.72;;
53646;SDS011;39550;52.230;5.194;2023-02-03T00:03:55;9.23;;;4.00;;
53646;SDS011;39550;52.230;5.194;2023-02-03T00:06:20;11.65;;;4.50;;
53646;SDS011;39550;52.230;5.194;2023-02-03T00:08:46;9.73;;;4.38;;
53646;SDS011;39550;52.230;5.194;2023-02-03T00:11:12;12.25;;;4.43;;
53646;SDS011;39550;52.230;5.194;2023-02-03T00:13:39;6.97;;;3.90;;
53646;SDS011;39550;52.230;5.194;2023-02-03T00:16:05;10.15;;;5.03;;
53646;SDS011;39550;52.230;5.194;2023-02-03T00:18:31;10.40;;;4.15;;
53646;SDS011;39550;52.230;5.194;2023-02-03T00:20:57;8.43;;;4.60;;
53646;SDS011;39550;52.230;5.194;2023-02-03T00:23:22;8.85;;;4.20;;
53646;SDS011;39550;52.230;5.194;2023-02-03T00:25:50;11.25;;;4.32;;
53646;SDS011;39550;52.230;5.194;2023-02-03T00:28:16;8.80;;;4.35;;
53646;SDS011;39550;52.230;5.194;2023-02-03T00:30:42;9.70;;;4.68;;
53646;SDS011;39550;52.230;5.194;2023-02-03T00:33:07;9.85;;;4.32;;
53646;SDS011;39550;52.230;5.194;2023-02-03T00:35:36;11.13;;;4.25;;
53646;SDS011;39550;52.230;5.194;2023-02-03T00:38:03;13.48;;;4.57;;
53646;SDS011;39550;52.230;5.194;2023-02-03T00:40:29;9.63;;;4.45;;
53646;SDS011;39550;52.230;5.194;2023-02-03T00:42:55;9.43;;;4.88;;
53646;SDS011;39550;52.230;5.194;2023-02-03T00:45:21;12.35;;;4.63;;
53646;SDS011;39550;52.230;5.194;2023-02-03T00:47:46;9.32;;;4.03;;
53646;SDS011;39550;52.230;5.194;2023-02-03T00:50:12;12.80;;;4.68;;
53646;SDS011;39550;52.230;5.194;2023-02-03T00:52:38;7.32;;;3.78;;
53646;SDS011;39550;52.230;5.194;2023-02-03T00:55:03;10.60;;;4.38;;
53646;SDS011;39550;52.230;5.194;2023-02-03T00:57:29;12.82;;;4.43;;
53646;SDS011;39550;52.230;5.194;2023-02-03T00:59:55;11.20;;;4.95;;
53646;SDS011;39550;52.230;5.194;2023-02-03T01:02:22;7.90;;;4.15;;
53646;SDS011;39550;52.230;5.194;2023-02-03T01:04:47;10.88;;;5.03;;
53646;SDS011;39550;52.230;5.194;2023-02-03T01:07:12;7.53;;;4.10;;
53646;SDS011;39550;52.230;5.194;2023-02-03T01:09:38;8.77;;;4.38;;
53646;SDS011;39550;52.230;5.194;2023-02-03T01:12:03;8.68;;;4.15;;
53646;SDS011;39550;52.230;5.194;2023-02-03T01:14:29;9.82;;;4.80;;
53646;SDS011;39550;52.230;5.194;2023-02-03T01:16:56;8.80;;;4.13;;
53646;SDS011;39550;52.230;5.194;2023-02-03T01:19:22;10.00;;;4.18;;
53646;SDS011;39550;52.230;5.194;2023-02-03T01:21:47;9.90;;;4.13;;
53646;SDS011;39550;52.230;5.194;2023-02-03T01:24:12;8.02;;;4.30;;
53646;SDS011;39550;52.230;5.194;2023-02-03T01:26:41;12.98;;;4.78;;
53646;SDS011;39550;52.230;5.194;2023-02-03T01:29:06;11.48;;;4.63;;
53646;SDS011;39550;52.230;5.194;2023-02-03T01:31:33;10.10;;;4.28;;
53646;SDS011;39550;52.230;5.194;2023-02-03T01:34:01;9.82;;;4.07;;
53646;SDS011;39550;52.230;5.194;2023-02-03T01:36:28;11.50;;;4.57;;
53646;SDS011;39550;52.230;5.194;2023-02-03T01:38:55;11.90;;;3.92;;
53646;SDS011;39550;52.230;5.194;2023-02-03T01:41:22;7.22;;;4.00;;
53646;SDS011;39550;52.230;5.194;2023-02-03T01:43:51;12.55;;;4.57;;
53646;SDS011;39550;52.230;5.194;2023-02-03T01:48:57;10.88;;;4.05;;
53646;SDS011;39550;52.230;5.194;2023-02-03T01:51:29;8.13;;;3.97;;
53646;SDS011;39550;52.230;5.194;2023-02-03T01:53:55;10.05;;;4.40;;
53646;SDS011;39550;52.230;5.194;2023-02-03T01:56:21;10.23;;;4.50;;
53646;SDS011;39550;52.230;5.194;2023-02-03T01:58:48;13.15;;;4.53;;
53646;SDS011;39550;52.230;5.194;2023-02-03T02:01:15;10.90;;;4.88;;
53646;SDS011;39550;52.230;5.194;2023-02-03T02:03:51;12.60;;;4.32;;
53646;SDS011;39550;52.230;5.194;2023-02-03T02:06:20;9.82;;;4.07;;
53646;SDS011;39550;52.230;5.194;2023-02-03T02:08:47;8.98;;;3.90;;
53646;SDS011;39550;52.230;5.194;2023-02-03T02:11:15;9.80;;;3.83;;
53646;SDS011;39550;52.230;5.194;2023-02-03T02:13:42;8.23;;;3.78;;
53646;SDS011;39550;52.230;5.194;2023-02-03T02:16:17;8.00;;;3.92;;
53646;SDS011;39550;52.230;5.194;2023-02-03T02:27:04;8.18;;;3.78;;
53646;SDS011;39550;52.230;5.194;2023-02-03T02:32:17;9.50;;;4.15;;
53646;SDS011;39550;52.230;5.194;2023-02-03T02:37:36;7.57;;;3.47;;
53646;SDS011;39550;52.230;5.194;2023-02-03T02:43:09;10.45;;;3.47;;
53646;SDS011;39550;52.230;5.194;2023-02-03T02:45:45;8.80;;;3.60;;
53646;SDS011;39550;52.230;5.194;2023-02-03T02:48:16;9.07;;;3.97;;
53646;SDS011;39550;52.230;5.194;2023-02-03T02:50:51;10.52;;;3.35;;
53646;SDS011;39550;52.230;5.194;2023-02-03T02:53:20;8.02;;;3.30;;
53646;SDS011;39550;52.230;5.194;2023-02-03T02:55:48;8.00;;;3.30;;
53646;SDS011;39550;52.230;5.194;2023-02-03T02:58:18;9.57;;;3.47;;
53646;SDS011;39550;52.230;5.194;2023-02-03T03:00:45;7.32;;;3.15;;
53646;SDS011;39550;52.230;5.194;2023-02-03T03:05:39;6.88;;;3.15;;
53646;SDS011;39550;52.230;5.194;2023-02-03T03:08:08;6.57;;;3.45;;
53646;SDS011;39550;52.230;5.194;2023-02-03T03:10:36;11.20;;;3.78;;
53646;SDS011;39550;52.230;5.194;2023-02-03T03:13:06;10.90;;;3.53;;
53646;SDS011;39550;52.230;5.194;2023-02-03T03:15:35;7.25;;;2.83;;
53646;SDS011;39550;52.230;5.194;2023-02-03T03:18:12;6.43;;;3.00;;
53646;SDS011;39550;52.230;5.194;2023-02-03T03:20:44;8.27;;;3.58;;
53646;SDS011;39550;52.230;5.194;2023-02-03T03:23:14;15.55;;;3.80;;
53646;SDS011;39550;52.230;5.194;2023-02-03T03:25:48;12.95;;;3.72;;
53646;SDS011;39550;52.230;5.194;2023-02-03T03:28:28;10.13;;;3.10;;
53646;SDS011;39550;52.230;5.194;2023-02-03T03:30:59;7.30;;;3.00;;
53646;SDS011;39550;52.230;5.194;2023-02-03T03:33:25;12.10;;;3.42;;
53646;SDS011;39550;52.230;5.194;2023-02-03T03:35:56;7.38;;;3.35;;
53646;SDS011;39550;52.230;5.194;2023-02-03T03:38:31;7.20;;;3.05;;
53646;SDS011;39550;52.230;5.194;2023-02-03T03:41:11;6.18;;;2.90;;
53646;SDS011;39550;52.230;5.194;2023-02-03T03:43:45;10.30;;;3.17;;
53646;SDS011;39550;52.230;5.194;2023-02-03T03:46:13;7.05;;;3.35;;
53646;SDS011;39550;52.230;5.194;2023-02-03T03:48:49;6.38;;;3.03;;
53646;SDS011;39550;52.230;5.194;2023-02-03T03:53:49;8.00;;;3.20;;
53646;SDS011;39550;52.230;5.194;2023-02-03T03:56:21;9.75;;;3.42;;
53646;SDS011;39550;52.230;5.194;2023-02-03T03:58:53;9.07;;;3.17;;
53646;SDS011;39550;52.230;5.194;2023-02-03T04:01:19;7.28;;;3.55;;
53646;SDS011;39550;52.230;5.194;2023-02-03T04:03:47;9.23;;;2.97;;
53646;SDS011;39550;52.230;5.194;2023-02-03T04:06:16;6.63;;;3.10;;
53646;SDS011;39550;52.230;5.194;2023-02-03T04:08:41;7.78;;;3.08;;
53646;SDS011;39550;52.230;5.194;2023-02-03T04:11:07;8.25;;;3.33;;
53646;SDS011;39550;52.230;5.194;2023-02-03T04:13:33;8.75;;;3.53;;
53646;SDS011;39550;52.230;5.194;2023-02-03T04:15:59;5.97;;;3.03;;
53646;SDS011;39550;52.230;5.194;2023-02-03T04:18:24;5.60;;;2.80;;
53646;SDS011;39550;52.230;5.194;2023-02-03T04:20:49;7.50;;;2.97;;
53646;SDS011;39550;52.230;5.194;2023-02-03T04:23:15;12.32;;;3.30;;
53646;SDS011;39550;52.230;5.194;2023-02-03T04:25:41;7.35;;;2.80;;
53646;SDS011;39550;52.230;5.194;2023-02-03T04:28:06;12.25;;;3.63;;
53646;SDS011;39550;52.230;5.194;2023-02-03T04:30:32;8.40;;;3.08;;
53646;SDS011;39550;52.230;5.194;2023-02-03T04:32:57;8.90;;;3.17;;
53646;SDS011;39550;52.230;5.194;2023-02-03T04:35:23;6.47;;;2.78;;
53646;SDS011;39550;52.230;5.194;2023-02-03T04:37:48;8.88;;;3.83;;
53646;SDS011;39550;52.230;5.194;2023-02-03T04:40:13;9.38;;;3.45;;
53646;SDS011;39550;52.230;5.194;2023-02-03T04:42:39;8.35;;;3.13;;
53646;SDS011;39550;52.230;5.194;2023-02-03T04:45:05;7.82;;;2.97;;
53646;SDS011;39550;52.230;5.194;2023-02-03T04:47:32;7.57;;;3.30;;
53646;SDS011;39550;52.230;5.194;2023-02-03T04:49:58;7.93;;;3.47;;
53646;SDS011;39550;52.230;5.194;2023-02-03T04:52:24;5.78;;;2.97;;
53646;SDS011;39550;52.230;5.194;2023-02-03T04:54:50;7.82;;;2.78;;
53646;SDS011;39550;52.230;5.194;2023-02-03T04:57:15;8.23;;;3.20;;
53646;SDS011;39550;52.230;5.194;2023-02-03T04:59:40;8.70;;;3.38;;
53646;SDS011;39550;52.230;5.194;2023-02-03T05:02:06;9.18;;;3.42;;
53646;SDS011;39550;52.230;5.194;2023-02-03T05:04:32;9.20;;;3.17;;
53646;SDS011;39550;52.230;5.194;2023-02-03T05:06:58;8.77;;;3.13;;
53646;SDS011;39550;52.230;5.194;2023-02-03T05:09:23;10.88;;;3.10;;
53646;SDS011;39550;52.230;5.194;2023-02-03T05:11:49;8.65;;;3.38;;
53646;SDS011;39550;52.230;5.194;2023-02-03T05:14:15;11.95;;;3.30;;
53646;SDS011;39550;52.230;5.194;2023-02-03T05:16:41;11.93;;;3.78;;
53646;SDS011;39550;52.230;5.194;2023-02-03T05:19:06;8.20;;;3.40;;
53646;SDS011;39550;52.230;5.194;2023-02-03T05:21:32;9.63;;;3.50;;
53646;SDS011;39550;52.230;5.194;2023-02-03T05:23:58;9.27;;;3.45;;
53646;SDS011;39550;52.230;5.194;2023-02-03T05:26:24;8.27;;;3.15;;
53646;SDS011;39550;52.230;5.194;2023-02-03T05:28:49;7.82;;;3.30;;
53646;SDS011;39550;52.230;5.194;2023-02-03T05:31:14;10.18;;;3.33;;
53646;SDS011;39550;52.230;5.194;2023-02-03T05:33:40;9.65;;;4.00;;
53646;SDS011;39550;52.230;5.194;2023-02-03T05:36:05;9.35;;;3.58;;
53646;SDS011;39550;52.230;5.194;2023-02-03T05:38:31;8.80;;;3.15;;
53646;SDS011;39550;52.230;5.194;2023-02-03T05:40:56;7.43;;;3.17;;
53646;SDS011;39550;52.230;5.194;2023-02-03T05:43:40;9.15;;;3.33;;
53646;SDS011;39550;52.230;5.194;2023-02-03T05:46:06;10.48;;;3.72;;
53646;SDS011;39550;52.230;5.194;2023-02-03T05:48:31;7.03;;;3.30;;
53646;SDS011;39550;52.230;5.194;2023-02-03T05:50:57;9.40;;;3.58;;
53646;SDS011;39550;52.230;5.194;2023-02-03T05:53:23;8.20;;;3.40;;
53646;SDS011;39550;52.230;5.194;2023-02-03T05:55:50;9.02;;;3.10;;
53646;SDS011;39550;52.230;5.194;2023-02-03T05:58:15;10.57;;;3.15;;
53646;SDS011;39550;52.230;5.194;2023-02-03T06:00:41;11.20;;;3.78;;
53646;SDS011;39550;52.230;5.194;2023-02-03T06:03:06;7.90;;;3.47;;
53646;SDS011;39550;52.230;5.194;2023-02-03T06:05:32;11.77;;;3.08;;
53646;SDS011;39550;52.230;5.194;2023-02-03T06:07:58;12.25;;;3.45;;
53646;SDS011;39550;52.230;5.194;2023-02-03T06:10:25;9.40;;;3.22;;
53646;SDS011;39550;52.230;5.194;2023-02-03T06:12:50;8.07;;;3.53;;
53646;SDS011;39550;52.230;5.194;2023-02-03T06:15:34;8.93;;;3.50;;
53646;SDS011;39550;52.230;5.194;2023-02-03T06:17:59;9.13;;;3.55;;
53646;SDS011;39550;52.230;5.194;2023-02-03T06:20:25;10.68;;;3.75;;
53646;SDS011;39550;52.230;5.194;2023-02-03T06:22:50;10.60;;;3.60;;
53646;SDS011;39550;52.230;5.194;2023-02-03T06:25:16;11.45;;;3.40;;
53646;SDS011;39550;52.230;5.194;2023-02-03T06:27:41;11.57;;;3.58;;
53646;SDS011;39550;52.230;5.194;2023-02-03T06:30:07;10.40;;;3.80;;
53646;SDS011;39550;52.230;5.194;2023-02-03T06:32:33;10.27;;;3.30;;
53646;SDS011;39550;52.230;5.194;2023-02-03T06:34:58;8.75;;;3.80;;
53646;SDS011;39550;52.230;5.194;2023-02-03T06:37:24;10.15;;;3.50;;
53646;SDS011;39550;52.230;5.194;2023-02-03T06:39:49;10.68;;;3.83;;
53646;SDS011;39550;52.230;5.194;2023-02-03T06:42:14;8.60;;;3.42;;
53646;SDS011;39550;52.230;5.194;2023-02-03T06:44:40;8.73;;;3.78;;
53646;SDS011;39550;52.230;5.194;2023-02-03T06:47:05;9.80;;;3.78;;
53646;SDS011;39550;52.230;5.194;2023-02-03T06:49:31;9.57;;;3.40;;
53646;SDS011;39550;52.230;5.194;2023-02-03T06:51:56;8.40;;;3.42;;
53646;SDS011;39550;52.230;5.194;2023-02-03T06:54:21;8.77;;;3.70;;
53646;SDS011;39550;52.230;5.194;2023-02-03T06:56:47;10.45;;;3.42;;
53646;SDS011;39550;52.230;5.194;2023-02-03T06:59:14;10.02;;;3.25;;
53646;SDS011;39550;52.230;5.194;2023-02-03T07:01:39;8.45;;;4.28;;
53646;SDS011;39550;52.230;5.194;2023-02-03T07:04:04;8.45;;;3.65;;
53646;SDS011;39550;52.230;5.194;2023-02-03T07:06:30;11.48;;;4.32;;
53646;SDS011;39550;52.230;5.194;2023-02-03T07:08:59;8.07;;;3.88;;
53646;SDS011;39550;52.230;5.194;2023-02-03T07:11:33;9.27;;;3.50;;
53646;SDS011;39550;52.230;5.194;2023-02-03T07:14:04;12.73;;;4.00;;
53646;SDS011;39550;52.230;5.194;2023-02-03T07:16:30;7.95;;;3.50;;
53646;SDS011;39550;52.230;5.194;2023-02-03T07:18:56;12.15;;;3.63;;
53646;SDS011;39550;52.230;5.194;2023-02-03T07:21:22;11.35;;;3.85;;
53646;SDS011;39550;52.230;5.194;2023-02-03T07:23:48;7.95;;;3.47;;
53646;SDS011;39550;52.230;5.194;2023-02-03T07:26:14;9.45;;;4.28;;
53646;SDS011;39550;52.230;5.194;2023-02-03T07:28:41;12.82;;;4.20;;
53646;SDS011;39550;52.230;5.194;2023-02-03T07:31:06;11.45;;;4.32;;
53646;SDS011;39550;52.230;5.194;2023-02-03T07:33:34;10.55;;;4.22;;
53646;SDS011;39550;52.230;5.194;2023-02-03T07:36:00;11.32;;;4.07;;
53646;SDS011;39550;52.230;5.194;2023-02-03T07:38:28;11.27;;;4.10;;
53646;SDS011;39550;52.230;5.194;2023-02-03T07:40:54;9.75;;;4.07;;
53646;SDS011;39550;52.230;5.194;2023-02-03T07:43:20;14.07;;;3.60;;
53646;SDS011;39550;52.230;5.194;2023-02-03T07:45:46;12.13;;;4.03;;
53646;SDS011;39550;52.230;5.194;2023-02-03T07:48:11;10.63;;;3.97;;
53646;SDS011;39550;52.230;5.194;2023-02-03T07:50:37;10.60;;;4.30;;
53646;SDS011;39550;52.230;5.194;2023-02-03T07:53:03;10.15;;;4.05;;
53646;SDS011;39550;52.230;5.194;2023-02-03T07:55:30;15.60;;;4.28;;
53646;SDS011;39550;52.230;5.194;2023-02-03T07:57:56;13.82;;;3.83;;
53646;SDS011;39550;52.230;5.194;2023-02-03T08:00:22;14.18;;;4.05;;
53646;SDS011;39550;52.230;5.194;2023-02-03T08:02:51;10.57;;;4.25;;
53646;SDS011;39550;52.230;5.194;2023-02-03T08:05:19;12.90;;;4.93;;
53646;SDS011;39550;52.230;5.194;2023-02-03T08:07:44;9.70;;;3.85;;
53646;SDS011;39550;52.230;5.194;2023-02-03T08:10:11;9.73;;;3.80;;
53646;SDS011;39550;52.230;5.194;2023-02-03T08:12:37;10.88;;;4.38;;
53646;SDS011;39550;52.230;5.194;2023-02-03T08:15:03;12.60;;;4.15;;
53646;SDS011;39550;52.230;5.194;2023-02-03T08:17:29;10.23;;;3.70;;
53646;SDS011;39550;52.230;5.194;2023-02-03T08:19:57;13.25;;;4.40;;
53646;SDS011;39550;52.230;5.194;2023-02-03T08:22:23;13.55;;;4.22;;
53646;SDS011;39550;52.230;5.194;2023-02-03T08:24:48;11.52;;;4.30;;
53646;SDS011;39550;52.230;5.194;2023-02-03T08:27:15;10.15;;;3.90;;
53646;SDS011;39550;52.230;5.194;2023-02-03T08:29:42;10.55;;;4.40;;
53646;SDS011;39550;52.230;5.194;2023-02-03T08:32:08;15.82;;;4.43;;
53646;SDS011;39550;52.230;5.194;2023-02-03T08:34:41;11.48;;;4.15;;
53646;SDS011;39550;52.230;5.194;2023-02-03T08:37:07;13.50;;;3.72;;
53646;SDS011;39550;52.230;5.194;2023-02-03T08:39:34;10.38;;;3.83;;
53646;SDS011;39550;52.230;5.194;2023-02-03T08:42:00;11.18;;;4.05;;
53646;SDS011;39550;52.230;5.194;2023-02-03T08:44:27;10.77;;;4.18;;
53646;SDS011;39550;52.230;5.194;2023-02-03T08:46:54;10.40;;;3.95;;
53646;SDS011;39550;52.230;5.194;2023-02-03T08:49:19;13.30;;;4.38;;
53646;SDS011;39550;52.230;5.194;2023-02-03T08:51:45;11.23;;;3.95;;
53646;SDS011;39550;52.230;5.194;2023-02-03T08:54:11;11.98;;;3.95;;
53646;SDS011;39550;52.230;5.194;2023-02-03T08:56:37;12.32;;;3.92;;
53646;SDS011;39550;52.230;5.194;2023-02-03T08:59:03;15.45;;;4.60;;
53646;SDS011;39550;52.230;5.194;2023-02-03T09:01:28;11.57;;;4.43;;
53646;SDS011;39550;52.230;5.194;2023-02-03T09:03:54;11.70;;;4.55;;
53646;SDS011;39550;52.230;5.194;2023-02-03T09:06:19;9.75;;;3.83;;
53646;SDS011;39550;52.230;5.194;2023-02-03T09:08:46;10.77;;;3.90;;
53646;SDS011;39550;52.230;5.194;2023-02-03T09:11:13;8.30;;;3.95;;
53646;SDS011;39550;52.230;5.194;2023-02-03T09:13:40;11.48;;;5.00;;
53646;SDS011;39550;52.230;5.194;2023-02-03T09:16:09;13.38;;;4.70;;
53646;SDS011;39550;52.230;5.194;2023-02-03T09:18:36;10.05;;;4.03;;
53646;SDS011;39550;52.230;5.194;2023-02-03T09:21:02;8.77;;;3.92;;
53646;SDS011;39550;52.230;5.194;2023-02-03T09:23:30;8.85;;;4.07;;
53646;SDS011;39550;52.230;5.194;2023-02-03T09:26:00;11.15;;;3.85;;
53646;SDS011;39550;52.230;5.194;2023-02-03T09:28:26;10.05;;;3.85;;
53646;SDS011;39550;52.230;5.194;2023-02-03T09:30:51;9.60;;;4.38;;
53646;SDS011;39550;52.230;5.194;2023-02-03T09:33:16;10.10;;;3.97;;
53646;SDS011;39550;52.230;5.194;2023-02-03T09:35:42;12.93;;;4.28;;
53646;SDS011;39550;52.230;5.194;2023-02-03T09:38:16;8.80;;;3.63;;
53646;SDS011;39550;52.230;5.194;2023-02-03T09:40:41;11.07;;;3.90;;
53646;SDS011;39550;52.230;5.194;2023-02-03T09:43:12;9.23;;;4.00;;
53646;SDS011;39550;52.230;5.194;2023-02-03T09:45:44;13.13;;;4.03;;
53646;SDS011;39550;52.230;5.194;2023-02-03T09:48:32;8.25;;;3.55;;
53646;SDS011;39550;52.230;5.194;2023-02-03T09:51:00;14.18;;;4.38;;
53646;SDS011;39550;52.230;5.194;2023-02-03T09:53:36;9.25;;;4.38;;
53646;SDS011;39550;52.230;5.194;2023-02-03T09:56:11;11.13;;;3.90;;
53646;SDS011;39550;52.230;5.194;2023-02-03T09:58:49;13.45;;;4.50;;
53646;SDS011;39550;52.230;5.194;2023-02-03T10:01:15;10.02;;;4.25;;
53646;SDS011;39550;52.230;5.194;2023-02-03T10:03:45;11.40;;;4.25;;
53646;SDS011;39550;52.230;5.194;2023-02-03T10:06:52;7.03;;;3.90;;
53646;SDS011;39550;52.230;5.194;2023-02-03T10:09:42;7.75;;;3.92;;
53646;SDS011;39550;52.230;5.194;2023-02-03T10:14:58;9.38;;;3.80;;
53646;SDS011;39550;52.230;5.194;2023-02-03T10:17:39;10.13;;;4.32;;
53646;SDS011;39550;52.230;5.194;2023-02-03T10:20:31;12.18;;;4.03;;
53646;SDS011;39550;52.230;5.194;2023-02-03T10:23:06;9.93;;;3.63;;
53646;SDS011;39550;52.230;5.194;2023-02-03T10:28:23;11.50;;;3.88;;
53646;SDS011;39550;52.230;5.194;2023-02-03T10:30:55;9.30;;;4.05;;
53646;SDS011;39550;52.230;5.194;2023-02-03T10:33:26;10.82;;;3.83;;
53646;SDS011;39550;52.230;5.194;2023-02-03T10:35:54;9.63;;;4.15;;
53646;SDS011;39550;52.230;5.194;2023-02-03T10:38:30;10.60;;;4.22;;
53646;SDS011;39550;52.230;5.194;2023-02-03T10:40:57;7.78;;;3.83;;
53646;SDS011;39550;52.230;5.194;2023-02-03T10:43:22;8.70;;;4.18;;
53646;SDS011;39550;52.230;5.194;2023-02-03T10:46:07;9.23;;;3.63;;
53646;SDS011;39550;52.230;5.194;2023-02-03T10:48:32;11.63;;;4.63;;
53646;SDS011;39550;52.230;5.194;2023-02-03T10:50:58;8.55;;;3.70;;
53646;SDS011;39550;52.230;5.194;2023-02-03T10:53:33;7.65;;;3.20;;
53646;SDS011;39550;52.230;5.194;2023-02-03T10:58:31;9.35;;;3.67;;
53646;SDS011;39550;52.230;5.194;2023-02-03T11:01:14;12.30;;;4.25;;
53646;SDS011;39550;52.230;5.194;2023-02-03T11:03:42;7.32;;;3.75;;
53646;SDS011;39550;52.230;5.194;2023-02-03T11:06:29;10.18;;;4.07;;
53646;SDS011;39550;52.230;5.194;2023-02-03T11:08:55;10.73;;;3.60;;
53646;SDS011;39550;52.230;5.194;2023-02-03T11:14:31;9.48;;;4.30;;
53646;SDS011;39550;52.230;5.194;2023-02-03T11:16:40;10.13;;;3.95;;
53646;SDS011;39550;52.230;5.194;2023-02-03T11:19:19;8.23;;;3.60;;
53646;SDS011;39550;52.230;5.194;2023-02-03T11:21:46;9.73;;;3.38;;
53646;SDS011;39550;52.230;5.194;2023-02-03T11:24:28;11.85;;;4.95;;
53646;SDS011;39550;52.230;5.194;2023-02-03T11:27:00;9.75;;;3.78;;
53646;SDS011;39550;52.230;5.194;2023-02-03T11:29:34;10.25;;;3.53;;
53646;SDS011;39550;52.230;5.194;2023-02-03T11:34:58;12.25;;;4.47;;
53646;SDS011;39550;52.230;5.194;2023-02-03T11:37:28;8.68;;;4.00;;
53646;SDS011;39550;52.230;5.194;2023-02-03T11:42:31;10.05;;;3.80;;
53646;SDS011;39550;52.230;5.194;2023-02-03T11:47:38;11.10;;;4.38;;
53646;SDS011;39550;52.230;5.194;2023-02-03T11:50:13;11.60;;;4.15;;
53646;SDS011;39550;52.230;5.194;2023-02-03T11:52:49;9.95;;;3.80;;
53646;SDS011;39550;52.230;5.194;2023-02-03T12:00:47;12.70;;;4.60;;
53646;SDS011;39550;52.230;5.194;2023-02-03T12:19:25;14.40;;;5.00;;
53646;SDS011;39550;52.230;5.194;2023-02-03T12:24:50;11.35;;;4.32;;
53646;SDS011;39550;52.230;5.194;2023-02-03T12:27:21;8.70;;;4.15;;
53646;SDS011;39550;52.230;5.194;2023-02-03T12:30:12;14.98;;;4.38;;
53646;SDS011;39550;52.230;5.194;2023-02-03T12:32:47;8.95;;;3.88;;
53646;SDS011;39550;52.230;5.194;2023-02-03T12:35:17;11.90;;;4.43;;
53646;SDS011;39550;52.230;5.194;2023-02-03T12:37:57;13.63;;;4.38;;
53646;SDS011;39550;52.230;5.194;2023-02-03T12:40:28;11.38;;;4.53;;
53646;SDS011;39550;52.230;5.194;2023-02-03T12:45:55;11.10;;;4.25;;
53646;SDS011;39550;52.230;5.194;2023-02-03T12:48:27;9.02;;;4.25;;
53646;SDS011;39550;52.230;5.194;2023-02-03T12:51:03;10.05;;;4.50;;
53646;SDS011;39550;52.230;5.194;2023-02-03T12:53:38;11.77;;;4.30;;
53646;SDS011;39550;52.230;5.194;2023-02-03T12:59:11;10.40;;;4.18;;
53646;SDS011;39550;52.230;5.194;2023-02-03T13:01:45;11.07;;;4.68;;
53646;SDS011;39550;52.230;5.194;2023-02-03T13:04:37;12.23;;;4.43;;
53646;SDS011;39550;52.230;5.194;2023-02-03T13:12:32;14.18;;;5.57;;
53646;SDS011;39550;52.230;5.194;2023-02-03T13:15:09;15.07;;;5.70;;
53646;SDS011;39550;52.230;5.194;2023-02-03T13:17:49;11.55;;;4.60;;
53646;SDS011;39550;52.230;5.194;2023-02-03T13:20:24;14.95;;;5.80;;
53646;SDS011;39550;52.230;5.194;2023-02-03T13:22:52;13.40;;;4.88;;
53646;SDS011;39550;52.230;5.194;2023-02-03T13:25:22;12.48;;;4.78;;
53646;SDS011;39550;52.230;5.194;2023-02-03T13:33:01;15.10;;;5.15;;
53646;SDS011;39550;52.230;5.194;2023-02-03T13:36:00;14.48;;;5.10;;
53646;SDS011;39550;52.230;5.194;2023-02-03T13:41:25;11.32;;;5.10;;
53646;SDS011;39550;52.230;5.194;2023-02-03T13:44:04;13.60;;;5.07;;
53646;SDS011;39550;52.230;5.194;2023-02-03T13:46:36;11.35;;;5.43;;
53646;SDS011;39550;52.230;5.194;2023-02-03T13:49:05;14.23;;;5.72;;
53646;SDS011;39550;52.230;5.194;2023-02-03T13:51:42;13.90;;;5.35;;
53646;SDS011;39550;52.230;5.194;2023-02-03T13:54:13;14.30;;;4.90;;
53646;SDS011;39550;52.230;5.194;2023-02-03T13:56:56;15.57;;;5.25;;
53646;SDS011;39550;52.230;5.194;2023-02-03T14:02:28;11.57;;;5.40;;
53646;SDS011;39550;52.230;5.194;2023-02-03T14:10:04;14.18;;;5.45;;
53646;SDS011;39550;52.230;5.194;2023-02-03T14:15:17;15.13;;;5.03;;
53646;SDS011;39550;52.230;5.194;2023-02-03T14:22:49;14.80;;;6.10;;
53646;SDS011;39550;52.230;5.194;2023-02-03T14:25:19;13.85;;;5.00;;
53646;SDS011;39550;52.230;5.194;2023-02-03T14:27:46;20.50;;;6.25;;
53646;SDS011;39550;52.230;5.194;2023-02-03T14:30:22;13.55;;;5.28;;
53646;SDS011;39550;52.230;5.194;2023-02-03T14:32:59;16.00;;;6.05;;
53646;SDS011;39550;52.230;5.194;2023-02-03T14:35:30;16.80;;;5.85;;
53646;SDS011;39550;52.230;5.194;2023-02-03T14:38:02;13.50;;;6.35;;
53646;SDS011;39550;52.230;5.194;2023-02-03T14:40:50;15.70;;;5.80;;
53646;SDS011;39550;52.230;5.194;2023-02-03T14:43:34;17.65;;;6.38;;
53646;SDS011;39550;52.230;5.194;2023-02-03T14:57:48;11.75;;;4.93;;
53646;SDS011;39550;52.230;5.194;2023-02-03T15:07:56;17.75;;;5.47;;
53646;SDS011;39550;52.230;5.194;2023-02-03T15:10:23;14.00;;;5.22;;
53646;SDS011;39550;52.230;5.194;2023-02-03T15:12:54;16.83;;;5.68;;
53646;SDS011;39550;52.230;5.194;2023-02-03T15:17:49;19.50;;;6.07;;
53646;SDS011;39550;52.230;5.194;2023-02-03T15:23:20;22.15;;;6.35;;
53646;SDS011;39550;52.230;5.194;2023-02-03T15:25:54;14.82;;;5.57;;
53646;SDS011;39550;52.230;5.194;2023-02-03T15:28:28;18.05;;;4.97;;
53646;SDS011;39550;52.230;5.194;2023-02-03T15:33:51;13.18;;;5.05;;
53646;SDS011;39550;52.230;5.194;2023-02-03T15:38:55;14.90;;;5.78;;
53646;SDS011;39550;52.230;5.194;2023-02-03T15:41:34;17.02;;;5.55;;
53646;SDS011;39550;52.230;5.194;2023-02-03T15:44:01;17.43;;;5.97;;
53646;SDS011;39550;52.230;5.194;2023-02-03T15:46:42;14.30;;;5.22;;
53646;SDS011;39550;52.230;5.194;2023-02-03T15:51:46;23.27;;;6.47;;
53646;SDS011;39550;52.230;5.194;2023-02-03T15:54:17;11.68;;;5.20;;
53646;SDS011;39550;52.230;5.194;2023-02-03T15:56:49;16.85;;;5.43;;
53646;SDS011;39550;52.230;5.194;2023-02-03T15:59:22;14.27;;;6.15;;
53646;SDS011;39550;52.230;5.194;2023-02-03T16:01:53;25.05;;;5.88;;
53646;SDS011;39550;52.230;5.194;2023-02-03T16:04:19;17.65;;;6.78;;
53646;SDS011;39550;52.230;5.194;2023-02-03T16:06:46;13.25;;;6.32;;
53646;SDS011;39550;52.230;5.194;2023-02-03T16:09:38;19.55;;;6.03;;
53646;SDS011;39550;52.230;5.194;2023-02-03T16:12:28;13.80;;;6.03;;
53646;SDS011;39550;52.230;5.194;2023-02-03T16:19:47;18.15;;;8.40;;
53646;SDS011;39550;52.230;5.194;2023-02-03T16:25:18;14.35;;;6.45;;
53646;SDS011;39550;52.230;5.194;2023-02-03T16:28:13;18.80;;;8.15;;
53646;SDS011;39550;52.230;5.194;2023-02-03T16:34:04;18.90;;;7.93;;
53646;SDS011;39550;52.230;5.194;2023-02-03T16:36:54;21.55;;;8.98;;
53646;SDS011;39550;52.230;5.194;2023-02-03T16:40:09;21.65;;;9.90;;
53646;SDS011;39550;52.230;5.194;2023-02-03T16:42:54;22.80;;;9.00;;
53646;SDS011;39550;52.230;5.194;2023-02-03T16:45:38;23.08;;;9.00;;
53646;SDS011;39550;52.230;5.194;2023-02-03T16:48:22;19.50;;;8.50;;
53646;SDS011;39550;52.230;5.194;2023-02-03T16:51:10;21.30;;;9.43;;
53646;SDS011;39550;52.230;5.194;2023-02-03T16:53:39;31.00;;;14.45;;
53646;SDS011;39550;52.230;5.194;2023-02-03T16:56:07;49.47;;;22.42;;
53646;SDS011;39550;52.230;5.194;2023-02-03T16:58:32;31.30;;;14.88;;
53646;SDS011;39550;52.230;5.194;2023-02-03T17:00:58;28.58;;;14.65;;
53646;SDS011;39550;52.230;5.194;2023-02-03T17:03:26;36.80;;;17.70;;
53646;SDS011;39550;52.230;5.194;2023-02-03T17:05:53;31.77;;;15.38;;
53646;SDS011;39550;52.230;5.194;2023-02-03T17:08:23;43.00;;;19.80;;
53646;SDS011;39550;52.230;5.194;2023-02-03T17:10:50;40.13;;;17.08;;
53646;SDS011;39550;52.230;5.194;2023-02-03T17:13:17;41.20;;;19.05;;
53646;SDS011;39550;52.230;5.194;2023-02-03T17:15:48;36.38;;;16.83;;
53646;SDS011;39550;52.230;5.194;2023-02-03T17:18:16;39.13;;;20.00;;
53646;SDS011;39550;52.230;5.194;2023-02-03T17:20:42;46.92;;;21.88;;